Time;durP1;ratioP1;P1;durP2;ratioP2;P2;SDS_P1;SDS_P2;PMS_P1;PMS_P2;Temp;Humidity;BMP_temperature;BMP_pressure;BME280_temperature;BME280_humidity;BME280_pressure;Samples;Min_cycle;Max_cycle;Signal;HPM_P1;HPM_P2
2023/05/13 00:01:43;;;;;;;9.50;6.50;;;15.60;99.90;;;;;;7307987;19;20198;-94
2023/05/13 00:04:09;;;;;;;12.97;8.47;;;15.50;99.90;;;;;;7289060;19;20192;-93
2023/05/13 00:06:35;;;;;;;12.87;7.97;;;15.50;99.90;;;;;;7288719;19;20187;-93
2023/05/13 00:09:01;;;;;;;11.60;7.67;;;15.50;99.90;;;;;;7288939;19;20196;-94
2023/05/13 00:11:26;;;;;;;11.27;7.20;;;15.40;99.90;;;;;;7288847;19;20177;-94
2023/05/13 00:13:52;;;;;;;11.17;7.87;;;15.30;99.90;;;;;;7286970;19;20238;-94
2023/05/13 00:16:18;;;;;;;10.80;7.50;;;15.10;99.90;;;;;;7287101;19;20188;-95
2023/05/13 00:18:44;;;;;;;11.03;7.10;;;15.00;99.90;;;;;;7316947;19;20190;-95
2023/05/13 00:21:10;;;;;;;12.90;6.70;;;14.90;99.90;;;;;;7295023;19;20697;-93
2023/05/13 00:23:36;;;;;;;10.20;7.07;;;14.70;99.90;;;;;;7295929;19;20173;-93
2023/05/13 00:26:02;;;;;;;12.43;7.73;;;14.60;99.90;;;;;;7294993;19;20179;-94
2023/05/13 00:28:28;;;;;;;12.63;7.37;;;14.60;99.90;;;;;;7294941;19;20192;-95
2023/05/13 00:30:54;;;;;;;13.33;7.93;;;14.60;99.90;;;;;;7296039;19;20189;-95
2023/05/13 00:33:20;;;;;;;15.97;8.80;;;14.60;99.90;;;;;;7294137;19;20285;-94
2023/05/13 00:35:46;;;;;;;12.53;8.93;;;14.60;99.90;;;;;;7318601;19;20178;-93
2023/05/13 00:38:12;;;;;;;15.70;9.77;;;14.60;99.90;;;;;;7295900;19;20181;-93
2023/05/13 00:40:38;;;;;;;13.67;7.90;;;14.60;99.90;;;;;;7297875;19;20509;-94
2023/05/13 00:43:05;;;;;;;12.93;8.73;;;14.50;99.90;;;;;;7313779;19;20202;-94
2023/05/13 00:45:35;;;;;;;14.80;9.83;;;14.50;99.90;;;;;;7320401;19;20189;-94
2023/05/13 00:48:06;;;;;;;14.87;9.43;;;14.40;99.90;;;;;;7322382;19;20199;-93
2023/05/13 00:50:33;;;;;;;13.93;10.00;;;14.40;99.90;;;;;;7320676;19;20193;-93
2023/05/13 00:52:59;;;;;;;16.23;10.63;;;14.50;99.90;;;;;;7321763;19;20183;-94
2023/05/13 00:55:25;;;;;;;16.63;10.20;;;14.60;99.90;;;;;;7302048;19;20195;-94
2023/05/13 00:57:51;;;;;;;14.53;10.23;;;14.60;99.90;;;;;;7301367;19;20190;-94
2023/05/13 01:00:18;;;;;;;15.17;9.57;;;14.60;99.90;;;;;;7314972;19;20380;-94
2023/05/13 01:02:56;;;;;;;14.27;9.60;;;14.50;99.90;;;;;;7325935;19;20193;-94
2023/05/13 01:05:24;;;;;;;13.33;9.50;;;14.40;99.90;;;;;;7200079;19;2004411;-94
2023/05/13 01:08:08;;;;;;;19.23;10.47;;;14.40;99.90;;;;;;7298281;19;20181;-94
2023/05/13 01:11:02;;;;;;;12.80;8.90;;;14.30;99.90;;;;;;7297008;19;20201;-93
2023/05/13 01:13:35;;;;;;;14.63;9.53;;;14.30;99.90;;;;;;7192969;19;2004425;-93
2023/05/13 01:16:16;;;;;;;14.63;9.17;;;14.30;99.90;;;;;;7293744;19;20192;-94
2023/05/13 01:18:46;;;;;;;18.27;10.00;;;14.20;99.90;;;;;;7295458;19;20192;-93
2023/05/13 01:21:12;;;;;;;16.30;9.50;;;14.20;99.90;;;;;;7295194;19;20273;-93
2023/05/13 01:23:38;;;;;;;13.33;9.73;;;14.30;99.90;;;;;;7294840;19;20183;-94
2023/05/13 01:26:04;;;;;;;16.73;10.27;;;14.30;99.90;;;;;;7293707;19;20185;-94
2023/05/13 01:28:32;;;;;;;16.70;10.70;;;14.20;99.90;;;;;;7292533;19;20192;-94
2023/05/13 01:30:59;;;;;;;14.83;10.30;;;14.30;99.90;;;;;;7294547;19;20191;-94
2023/05/13 01:33:26;;;;;;;14.57;9.97;;;14.30;99.90;;;;;;7293896;19;20186;-94
2023/05/13 01:35:52;;;;;;;15.20;10.17;;;14.20;99.90;;;;;;7291373;19;20185;-94
2023/05/13 01:38:20;;;;;;;15.93;10.37;;;14.10;99.90;;;;;;7294092;19;20185;-93
2023/05/13 01:40:50;;;;;;;18.17;10.30;;;13.90;99.90;;;;;;7294613;19;20263;-93
2023/05/13 01:43:17;;;;;;;17.00;9.97;;;13.90;99.90;;;;;;7315338;19;20249;-92
2023/05/13 01:45:45;;;;;;;15.80;9.67;;;14.00;99.90;;;;;;7296355;19;20188;-94
2023/05/13 01:48:11;;;;;;;14.40;10.03;;;14.00;99.90;;;;;;7303222;19;20174;-93
2023/05/13 01:50:42;;;;;;;15.27;10.40;;;14.00;99.90;;;;;;7292292;19;20540;-94
2023/05/13 01:53:08;;;;;;;16.00;10.13;;;14.00;99.90;;;;;;7293552;19;20196;-93
2023/05/13 01:55:35;;;;;;;15.00;10.43;;;14.00;99.90;;;;;;7293957;19;20188;-94
2023/05/13 01:58:03;;;;;;;16.40;11.00;;;13.90;99.90;;;;;;7293944;19;20185;-94
2023/05/13 02:00:29;;;;;;;13.73;10.10;;;14.00;99.90;;;;;;7292041;19;20203;-94
2023/05/13 02:02:55;;;;;;;15.27;10.20;;;14.00;99.90;;;;;;7293599;19;20201;-93
2023/05/13 02:05:22;;;;;;;13.70;9.97;;;13.90;99.90;;;;;;7293771;19;20184;-93
2023/05/13 02:07:48;;;;;;;14.07;9.97;;;13.90;99.90;;;;;;7293123;19;20191;-94
2023/05/13 02:10:15;;;;;;;14.97;10.30;;;13.80;99.90;;;;;;7316327;19;20529;-94
2023/05/13 02:12:41;;;;;;;17.47;10.37;;;13.90;99.90;;;;;;7293444;19;20708;-94
2023/05/13 02:15:07;;;;;;;15.10;9.83;;;13.90;99.90;;;;;;7293497;19;20262;-92
2023/05/13 02:17:33;;;;;;;15.03;10.83;;;13.90;99.90;;;;;;7292194;19;20190;-94
2023/05/13 02:19:59;;;;;;;15.03;10.60;;;13.90;99.90;;;;;;7293748;19;20185;-94
2023/05/13 02:22:25;;;;;;;16.80;10.97;;;13.90;99.90;;;;;;7292191;19;20592;-93
2023/05/13 02:24:50;;;;;;;17.03;10.87;;;14.00;99.90;;;;;;7292613;19;20557;-94
2023/05/13 02:27:16;;;;;;;19.17;10.83;;;13.90;99.90;;;;;;7313590;19;20198;-94
2023/05/13 02:29:42;;;;;;;16.53;11.17;;;13.90;99.90;;;;;;7291211;19;20271;-93
2023/05/13 02:32:08;;;;;;;14.83;10.63;;;13.80;99.90;;;;;;7291414;19;20182;-93
2023/05/13 02:34:34;;;;;;;16.33;10.53;;;13.70;99.90;;;;;;7291159;19;20186;-93
2023/05/13 02:37:00;;;;;;;16.83;10.90;;;13.60;99.90;;;;;;7291542;19;20194;-93
2023/05/13 02:39:26;;;;;;;17.27;11.40;;;13.60;99.90;;;;;;7291086;19;20188;-93
2023/05/13 02:41:56;;;;;;;18.60;11.73;;;13.60;99.90;;;;;;7287973;19;20191;-93
2023/05/13 02:44:24;;;;;;;16.60;11.13;;;13.60;99.90;;;;;;7289607;19;20193;-93
2023/05/13 02:46:50;;;;;;;15.17;10.90;;;13.50;99.90;;;;;;7288197;19;20182;-93
2023/05/13 02:49:17;;;;;;;17.00;11.47;;;13.50;99.90;;;;;;7319497;19;20295;-93
2023/05/13 02:51:42;;;;;;;17.60;11.83;;;13.50;99.90;;;;;;7304654;19;20184;-93
2023/05/13 02:54:08;;;;;;;15.47;11.30;;;13.40;99.90;;;;;;7293751;19;20206;-93
2023/05/13 02:56:35;;;;;;;19.40;11.83;;;13.30;99.90;;;;;;7290606;19;20193;-93
2023/05/13 02:59:00;;;;;;;20.37;11.50;;;13.30;99.90;;;;;;7290633;19;20184;-94
2023/05/13 03:01:26;;;;;;;20.17;11.97;;;13.30;99.90;;;;;;7291250;19;20205;-93
2023/05/13 03:03:52;;;;;;;17.17;12.27;;;13.30;99.90;;;;;;7289524;19;20208;-93
2023/05/13 03:06:18;;;;;;;19.57;12.23;;;13.30;99.90;;;;;;7293709;19;20245;-92
2023/05/13 03:08:44;;;;;;;18.90;12.67;;;13.30;99.90;;;;;;7311232;19;20189;-92
2023/05/13 03:11:10;;;;;;;18.80;11.47;;;13.30;99.90;;;;;;7289617;19;20538;-92
2023/05/13 03:13:38;;;;;;;19.17;12.23;;;13.20;99.90;;;;;;7288116;19;20193;-92
2023/05/13 03:16:04;;;;;;;18.77;12.97;;;13.30;99.90;;;;;;7288877;19;20185;-92
2023/05/13 03:18:31;;;;;;;20.13;13.03;;;13.20;99.90;;;;;;7289363;19;20225;-92
2023/05/13 03:20:58;;;;;;;17.20;12.47;;;13.30;99.90;;;;;;7290842;19;20188;-92
2023/05/13 03:23:24;;;;;;;23.37;14.77;;;13.20;99.90;;;;;;7289158;19;20192;-92
2023/05/13 03:25:53;;;;;;;19.63;14.67;;;13.30;99.90;;;;;;7290834;19;20195;-93
2023/05/13 03:28:19;;;;;;;20.43;14.90;;;13.30;99.90;;;;;;7289062;19;20193;-92
2023/05/13 03:30:45;;;;;;;20.33;14.23;;;13.20;99.90;;;;;;7312610;19;20209;-93
2023/05/13 03:33:17;;;;;;;18.00;13.27;;;13.10;99.90;;;;;;7283957;19;20220;-92
2023/05/13 03:35:44;;;;;;;20.40;14.07;;;13.10;99.90;;;;;;7305056;19;20244;-93
2023/05/13 03:38:10;;;;;;;20.97;13.77;;;13.10;99.90;;;;;;7289605;19;20173;-93
2023/05/13 03:40:41;;;;;;;20.77;13.97;;;13.10;99.90;;;;;;7289175;19;20181;-92
2023/05/13 03:43:07;;;;;;;23.87;16.20;;;13.10;99.90;;;;;;7288657;19;20200;-93
2023/05/13 03:45:35;;;;;;;21.97;15.67;;;13.20;99.90;;;;;;7290135;19;20180;-93
2023/05/13 03:48:05;;;;;;;20.13;14.40;;;13.10;99.90;;;;;;7288727;19;20224;-92
2023/05/13 03:50:31;;;;;;;18.27;14.23;;;13.10;99.90;;;;;;7289863;19;20652;-92
2023/05/13 03:52:57;;;;;;;18.57;13.40;;;13.10;99.90;;;;;;7292928;19;20180;-93
2023/05/13 03:55:23;;;;;;;19.97;13.30;;;13.10;99.90;;;;;;7295572;19;20526;-93
2023/05/13 03:57:49;;;;;;;19.27;13.67;;;13.10;99.90;;;;;;7306345;19;20189;-93
2023/05/13 04:00:17;;;;;;;20.90;14.63;;;13.00;99.90;;;;;;7310271;19;20253;-94
2023/05/13 04:02:47;;;;;;;22.17;15.07;;;13.10;99.90;;;;;;7311706;19;20199;-92
2023/05/13 04:05:13;;;;;;;21.43;14.93;;;13.10;99.90;;;;;;7309751;19;20181;-93
2023/05/13 04:07:39;;;;;;;20.40;15.63;;;13.20;99.90;;;;;;7295741;19;20247;-93
2023/05/13 04:10:06;;;;;;;22.60;15.00;;;13.20;99.90;;;;;;7294245;19;20189;-93
2023/05/13 04:12:32;;;;;;;22.57;14.97;;;13.10;99.90;;;;;;7295922;19;20217;-91
2023/05/13 04:14:59;;;;;;;22.20;16.17;;;13.10;99.90;;;;;;7294973;19;20193;-92
2023/05/13 04:17:25;;;;;;;22.83;16.33;;;13.10;99.90;;;;;;7294504;19;20592;-93
2023/05/13 04:19:54;;;;;;;24.03;16.23;;;13.10;99.90;;;;;;7294039;19;20180;-92
2023/05/13 04:22:20;;;;;;;22.23;14.90;;;13.00;99.90;;;;;;7294941;19;20192;-92
2023/05/13 04:24:50;;;;;;;22.33;16.50;;;12.90;99.90;;;;;;7306844;19;20204;-93
2023/05/13 04:27:16;;;;;;;27.80;17.60;;;13.00;99.90;;;;;;7316308;19;20655;-92
2023/05/13 04:29:42;;;;;;;24.47;17.13;;;13.00;99.90;;;;;;7295636;19;20185;-93
2023/05/13 04:32:08;;;;;;;24.07;15.63;;;13.20;99.90;;;;;;7295976;19;20198;-94
2023/05/13 04:34:34;;;;;;;19.70;15.67;;;13.30;99.90;;;;;;7293252;19;20197;-94
2023/05/13 04:37:00;;;;;;;22.60;15.77;;;13.30;99.90;;;;;;7294213;19;20196;-94
2023/05/13 04:39:26;;;;;;;22.50;15.70;;;13.60;99.90;;;;;;7297017;19;20185;-94
2023/05/13 04:41:52;;;;;;;22.10;14.50;;;14.10;99.90;;;;;;7294795;19;20200;-95
2023/05/13 04:44:17;;;;;;;19.80;13.60;;;14.70;99.90;;;;;;7307772;19;20182;-94
2023/05/13 04:46:43;;;;;;;18.13;12.47;;;15.40;99.90;;;;;;7313691;19;20218;-94
2023/05/13 04:49:10;;;;;;;15.70;10.73;;;16.10;99.90;;;;;;7295266;19;20191;-90
2023/05/13 04:51:37;;;;;;;17.80;11.17;;;16.70;99.90;;;;;;7294868;19;20199;-92
2023/05/13 04:54:03;;;;;;;15.23;10.60;;;17.20;99.90;;;;;;7295488;19;20206;-93
2023/05/13 04:56:29;;;;;;;15.67;10.70;;;17.70;99.90;;;;;;7303342;19;20185;-93
2023/05/13 04:58:58;;;;;;;16.70;9.33;;;18.40;99.90;;;;;;7308709;19;20247;-93
2023/05/13 05:01:24;;;;;;;17.00;8.70;;;18.90;99.90;;;;;;7299545;19;20219;-93
2023/05/13 05:03:52;;;;;;;15.33;9.20;;;19.40;99.90;;;;;;7298038;19;20211;-93
2023/05/13 05:06:18;;;;;;;11.53;7.93;;;20.00;99.90;;;;;;7302271;19;20188;-93
2023/05/13 05:08:45;;;;;;;12.93;7.83;;;20.50;99.90;;;;;;7317027;19;20200;-94
2023/05/13 05:11:10;;;;;;;11.87;8.57;;;21.00;99.90;;;;;;7295679;19;20655;-94
2023/05/13 05:13:37;;;;;;;12.30;9.37;;;21.20;99.90;;;;;;7295197;19;20197;-94
2023/05/13 05:16:02;;;;;;;13.60;9.43;;;21.10;99.90;;;;;;7294679;19;20674;-92
2023/05/13 05:18:30;;;;;;;13.70;10.00;;;21.40;99.90;;;;;;7293270;19;20200;-93
2023/05/13 05:20:55;;;;;;;17.47;10.27;;;22.10;99.90;;;;;;7292513;19;20195;-94
2023/05/13 05:23:22;;;;;;;14.00;9.07;;;22.70;99.90;;;;;;7290495;19;20192;-93
2023/05/13 05:25:50;;;;;;;13.77;8.70;;;23.10;99.90;;;;;;7292253;19;20647;-93
2023/05/13 05:28:16;;;;;;;15.53;12.17;;;23.70;99.90;;;;;;7312747;19;20199;-93
2023/05/13 05:30:43;;;;;;;18.13;12.30;;;24.20;99.90;;;;;;7291986;19;20214;-93
2023/05/13 05:33:15;;;;;;;15.07;11.03;;;24.60;99.90;;;;;;7291533;19;20239;-95
2023/05/13 05:35:41;;;;;;;15.07;10.97;;;24.60;99.90;;;;;;7290601;19;20197;-94
2023/05/13 05:38:11;;;;;;;12.77;9.30;;;24.80;99.90;;;;;;7292286;19;20223;-94
2023/05/13 05:40:40;;;;;;;14.77;10.50;;;25.20;99.90;;;;;;7291118;19;20202;-94
2023/05/13 05:43:07;;;;;;;13.23;10.00;;;25.60;99.90;;;;;;7289747;19;20201;-94
2023/05/13 05:45:37;;;;;;;14.00;9.63;;;25.20;99.90;;;;;;7292278;19;20193;-93
2023/05/13 05:48:05;;;;;;;12.73;9.80;;;25.40;99.90;;;;;;7290098;19;20660;-94
2023/05/13 05:50:32;;;;;;;11.27;9.20;;;25.70;99.90;;;;;;7291292;19;20196;-93
2023/05/13 05:52:59;;;;;;;14.67;9.30;;;26.30;99.90;;;;;;7290826;19;20206;-93
2023/05/13 05:55:27;;;;;;;16.23;9.60;;;26.30;99.90;;;;;;7294271;19;20205;-94
2023/05/13 05:57:55;;;;;;;14.07;9.70;;;25.90;99.90;;;;;;7293649;19;20695;-93
2023/05/13 06:00:21;;;;;;;14.23;9.67;;;25.30;99.90;;;;;;7292416;19;20193;-93
2023/05/13 06:02:47;;;;;;;14.77;9.40;;;25.10;99.90;;;;;;7325606;19;20225;-94
2023/05/13 06:05:14;;;;;;;14.93;9.70;;;24.90;99.90;;;;;;7320997;19;20199;-93
2023/05/13 06:07:41;;;;;;;16.13;8.27;;;23.80;99.90;;;;;;7314958;19;20197;-95
2023/05/13 06:10:07;;;;;;;14.77;9.20;;;22.60;99.90;;;;;;7313185;19;20193;-92
2023/05/13 06:12:33;;;;;;;14.73;8.83;;;21.90;99.90;;;;;;7314232;19;20208;-93
2023/05/13 06:15:00;;;;;;;11.73;8.43;;;21.80;99.90;;;;;;7307573;19;20188;-92
2023/05/13 06:17:26;;;;;;;12.13;7.90;;;21.80;99.90;;;;;;7294026;19;20188;-94
2023/05/13 06:19:57;;;;;;;13.57;8.37;;;21.90;99.90;;;;;;7292131;19;20218;-95
2023/05/13 06:22:23;;;;;;;12.63;7.90;;;21.50;99.90;;;;;;7289966;19;20190;-92
2023/05/13 06:24:50;;;;;;;11.63;7.47;;;21.00;99.90;;;;;;7291913;19;20226;-92
2023/05/13 06:27:16;;;;;;;12.70;7.43;;;21.00;99.90;;;;;;7312041;19;20183;-92
2023/05/13 06:29:42;;;;;;;10.73;7.20;;;21.80;99.90;;;;;;7289514;19;20267;-91
2023/05/13 06:32:08;;;;;;;13.10;7.53;;;22.90;99.90;;;;;;7291595;19;20174;-91
2023/05/13 06:34:34;;;;;;;12.13;7.10;;;23.40;99.90;;;;;;7288633;19;20197;-91
2023/05/13 06:36:59;;;;;;;13.00;7.30;;;23.20;99.90;;;;;;7289289;19;20221;-91
2023/05/13 06:39:25;;;;;;;9.57;6.60;;;23.30;99.90;;;;;;7290541;19;20238;-92
2023/05/13 06:41:52;;;;;;;14.10;6.60;;;23.00;99.90;;;;;;7288334;19;20209;-92
2023/05/13 06:44:19;;;;;;;13.00;7.37;;;22.80;99.90;;;;;;7289413;19;20256;-92
2023/05/13 06:46:48;;;;;;;12.23;7.47;;;22.90;99.90;;;;;;7298456;19;20185;-91
2023/05/13 06:49:15;;;;;;;15.43;7.23;;;22.60;99.90;;;;;;7308936;19;20296;-92
2023/05/13 06:51:41;;;;;;;14.07;7.37;;;22.10;99.90;;;;;;7287902;19;20205;-93
2023/05/13 06:54:07;;;;;;;11.10;6.67;;;22.50;99.90;;;;;;7286984;19;20990;-93
2023/05/13 06:56:52;;;;;;;12.10;6.97;;;22.70;99.90;;;;;;7288433;19;20193;-92
2023/05/13 06:59:27;;;;;;;11.47;6.10;;;22.80;99.90;;;;;;7280472;19;20181;-91
2023/05/13 07:02:22;;;;;;;10.73;6.50;;;23.00;99.90;;;;;;7285996;19;20205;-93
2023/05/13 07:05:25;;;;;;;10.67;6.90;;;24.80;99.90;;;;;;7282533;19;20184;-93
2023/05/13 07:07:58;;;;;;;12.73;6.70;;;25.20;99.90;;;;;;7261900;19;20196;-91
2023/05/13 07:10:27;;;;;;;11.67;7.30;;;25.60;99.90;;;;;;7300835;19;20193;-93
2023/05/13 07:13:26;;;;;;;14.03;6.63;;;25.10;99.90;;;;;;7290542;19;20220;-91
2023/05/13 07:15:56;;;;;;;12.13;6.80;;;24.80;99.90;;;;;;7183208;19;2004397;-93
2023/05/13 07:18:22;;;;;;;10.83;6.60;;;25.20;99.90;;;;;;7288417;19;20193;-92
2023/05/13 07:20:48;;;;;;;12.60;6.90;;;26.30;99.90;;;;;;7302483;19;20193;-92
2023/05/13 07:23:14;;;;;;;11.60;6.80;;;26.40;99.90;;;;;;7303424;19;20220;-93
2023/05/13 07:25:39;;;;;;;12.53;6.77;;;26.40;99.90;;;;;;7286678;19;20184;-92
2023/05/13 07:28:05;;;;;;;12.57;6.55;;;26.40;99.90;;;;;;7295728;19;20184;-91
2023/05/13 07:30:31;;;;;;;9.73;5.95;;;27.00;99.90;;;;;;7301652;19;20188;-94
2023/05/13 07:32:57;;;;;;;9.00;5.85;;;28.60;99.90;;;;;;7300978;19;20185;-92
2023/05/13 07:35:23;;;;;;;12.90;6.38;;;27.50;97.00;;;;;;7299858;19;20192;-92
2023/05/13 07:37:51;;;;;;;10.93;6.40;;;27.40;99.40;;;;;;7308365;19;20586;-92
2023/05/13 07:40:18;;;;;;;13.15;6.38;;;27.40;98.40;;;;;;7323791;19;20205;-91
2023/05/13 07:42:44;;;;;;;11.23;5.72;;;27.60;97.40;;;;;;7301446;19;20255;-91
2023/05/13 07:45:10;;;;;;;10.52;6.25;;;28.40;96.20;;;;;;7302243;19;20213;-91
2023/05/13 07:47:36;;;;;;;11.45;6.30;;;29.20;95.00;;;;;;7299824;19;20193;-91
2023/05/13 07:50:02;;;;;;;11.18;6.20;;;29.50;92.90;;;;;;7301202;19;20188;-92
2023/05/13 07:52:28;;;;;;;13.35;5.85;;;30.00;93.10;;;;;;7301041;19;20205;-91
2023/05/13 07:54:54;;;;;;;10.95;6.75;;;30.70;91.80;;;;;;7300426;19;20180;-91
2023/05/13 07:57:20;;;;;;;11.20;6.40;;;30.70;91.00;;;;;;7299869;19;20271;-91
2023/05/13 07:59:45;;;;;;;12.75;6.57;;;30.80;91.20;;;;;;7322986;19;20307;-91
2023/05/13 08:02:11;;;;;;;14.43;7.07;;;31.40;87.60;;;;;;7299036;19;20195;-90
2023/05/13 08:04:37;;;;;;;11.15;6.80;;;31.60;87.70;;;;;;7301401;19;20191;-91
2023/05/13 08:07:03;;;;;;;12.45;6.85;;;31.80;84.10;;;;;;7302498;19;20188;-91
2023/05/13 08:09:29;;;;;;;16.40;6.10;;;32.40;83.20;;;;;;7300307;19;20200;-91
2023/05/13 08:11:55;;;;;;;13.80;6.60;;;31.70;83.40;;;;;;7300249;19;20201;-91
2023/05/13 08:14:21;;;;;;;13.35;6.45;;;31.10;85.70;;;;;;7299625;19;20184;-91
2023/05/13 08:16:47;;;;;;;12.45;6.32;;;30.90;83.60;;;;;;7330662;19;20185;-91
2023/05/13 08:19:14;;;;;;;10.98;6.10;;;31.60;82.90;;;;;;7307394;19;20185;-92
2023/05/13 08:21:40;;;;;;;12.73;6.10;;;31.80;81.20;;;;;;7302200;19;20201;-92
2023/05/13 08:24:06;;;;;;;13.35;5.93;;;32.20;80.00;;;;;;7300897;19;20196;-91
2023/05/13 08:26:32;;;;;;;13.50;6.03;;;32.70;81.30;;;;;;7299724;19;20192;-91
2023/05/13 08:28:59;;;;;;;15.13;6.43;;;32.90;78.60;;;;;;7299110;19;20644;-91
2023/05/13 08:31:25;;;;;;;16.05;6.32;;;32.80;77.60;;;;;;7300277;19;20192;-91
2023/05/13 08:33:52;;;;;;;14.70;6.60;;;32.60;77.50;;;;;;7299646;19;20218;-92
2023/05/13 08:36:18;;;;;;;13.25;6.28;;;31.70;78.90;;;;;;7315373;19;20188;-91
2023/05/13 08:38:44;;;;;;;12.45;6.47;;;32.00;80.10;;;;;;7318065;19;20216;-90
2023/05/13 08:41:14;;;;;;;18.25;6.70;;;32.20;76.20;;;;;;7292639;19;20188;-91
2023/05/13 08:43:42;;;;;;;10.40;6.78;;;31.70;79.90;;;;;;7293198;19;20197;-91
2023/05/13 08:46:10;;;;;;;10.63;6.00;;;31.90;78.50;;;;;;7294976;19;20209;-91
2023/05/13 08:48:39;;;;;;;10.32;6.00;;;32.20;76.70;;;;;;7296116;19;20226;-91
2023/05/13 08:51:06;;;;;;;13.10;6.32;;;31.40;78.10;;;;;;7324232;19;20193;-90
2023/05/13 08:53:34;;;;;;;12.77;6.68;;;30.40;78.60;;;;;;7322460;19;20195;-90
2023/05/13 08:56:00;;;;;;;11.60;6.65;;;30.00;81.20;;;;;;7321655;19;20193;-90
2023/05/13 08:58:26;;;;;;;13.40;6.60;;;30.10;80.70;;;;;;7319986;19;20217;-90
2023/05/13 09:00:53;;;;;;;13.77;6.70;;;30.30;80.50;;;;;;7303991;19;20668;-91
2023/05/13 09:03:20;;;;;;;19.35;7.15;;;30.40;81.80;;;;;;7300576;19;20222;-90
2023/05/13 09:05:46;;;;;;;13.00;7.43;;;30.50;80.00;;;;;;7314764;19;20193;-91
2023/05/13 09:08:13;;;;;;;13.65;7.20;;;30.70;82.80;;;;;;7292642;19;20232;-91
2023/05/13 09:10:39;;;;;;;12.57;6.35;;;31.40;78.80;;;;;;7293178;19;20200;-91
2023/05/13 09:13:06;;;;;;;15.55;7.25;;;32.00;77.60;;;;;;7291620;19;20196;-91
2023/05/13 09:15:32;;;;;;;16.95;7.55;;;31.70;77.30;;;;;;7290163;19;20193;-91
2023/05/13 09:18:00;;;;;;;13.07;7.57;;;32.00;77.40;;;;;;7289841;19;20659;-92
2023/05/13 09:20:27;;;;;;;12.80;7.70;;;31.50;77.50;;;;;;7291934;19;20209;-91
2023/05/13 09:23:00;;;;;;;16.50;7.95;;;32.30;78.50;;;;;;7306784;19;20204;-90
2023/05/13 09:25:27;;;;;;;14.15;8.80;;;31.70;80.20;;;;;;7291351;19;20201;-91
2023/05/13 09:27:58;;;;;;;12.77;8.85;;;31.20;82.20;;;;;;7291011;19;20185;-91
2023/05/13 09:30:28;;;;;;;14.38;8.20;;;31.40;77.40;;;;;;7291161;19;20203;-91
2023/05/13 09:33:14;;;;;;;14.48;7.88;;;31.80;79.70;;;;;;7290409;19;20188;-91
2023/05/13 09:35:48;;;;;;;15.93;8.90;;;31.90;78.80;;;;;;7291208;19;20200;-91
2023/05/13 09:38:16;;;;;;;13.77;9.20;;;31.80;77.70;;;;;;7290362;19;20214;-91
2023/05/13 09:40:58;;;;;;;14.02;8.80;;;32.20;76.00;;;;;;7291422;19;20200;-91
2023/05/13 09:43:32;;;;;;;12.00;7.97;;;32.00;76.40;;;;;;7187361;19;2004431;-91
2023/05/13 09:46:04;;;;;;;14.45;9.60;;;31.40;78.00;;;;;;7286796;19;20200;-90
2023/05/13 09:48:32;;;;;;;13.35;9.30;;;31.50;78.00;;;;;;7285560;19;20201;-91
2023/05/13 09:50:58;;;;;;;15.38;9.50;;;31.00;76.70;;;;;;7285916;19;20180;-91
2023/05/13 09:53:25;;;;;;;16.08;8.88;;;30.90;79.50;;;;;;7286980;19;20244;-91
2023/05/13 09:55:54;;;;;;;14.02;8.82;;;30.80;78.30;;;;;;7286823;19;20217;-92
2023/05/13 09:58:21;;;;;;;16.42;9.40;;;30.50;78.60;;;;;;7288001;19;20193;-92
2023/05/13 10:00:56;;;;;;;13.65;8.80;;;31.10;83.90;;;;;;7314097;19;20193;-92
2023/05/13 10:03:22;;;;;;;15.55;8.52;;;31.60;82.10;;;;;;7276019;19;20188;-92
2023/05/13 10:05:52;;;;;;;15.13;9.50;;;32.20;79.10;;;;;;7307187;19;20201;-92
2023/05/13 10:08:18;;;;;;;18.45;10.93;;;31.60;76.20;;;;;;7319065;19;20188;-92
2023/05/13 10:10:46;;;;;;;15.52;10.43;;;31.90;77.80;;;;;;7307022;19;20220;-92
2023/05/13 10:13:14;;;;;;;16.92;11.00;;;31.50;79.40;;;;;;7292692;19;20184;-93
2023/05/13 10:15:46;;;;;;;17.77;11.38;;;31.50;80.30;;;;;;7294613;19;20196;-92
2023/05/13 10:18:13;;;;;;;17.80;11.45;;;31.70;78.30;;;;;;7292200;19;20189;-91
2023/05/13 10:20:41;;;;;;;16.25;10.60;;;31.20;77.10;;;;;;7290335;19;20203;-91
2023/05/13 10:23:07;;;;;;;15.38;10.35;;;30.60;80.50;;;;;;7290964;19;20192;-92
2023/05/13 10:25:32;;;;;;;15.32;9.98;;;31.00;80.60;;;;;;7296129;19;20694;-92
2023/05/13 10:28:00;;;;;;;17.00;9.93;;;30.80;77.30;;;;;;7297771;19;20192;-91
2023/05/13 10:30:28;;;;;;;18.33;10.75;;;30.70;77.50;;;;;;7290406;19;20177;-92
2023/05/13 10:32:54;;;;;;;17.52;10.60;;;30.60;78.90;;;;;;7289670;19;20185;-91
2023/05/13 10:35:26;;;;;;;16.30;9.07;;;30.10;80.50;;;;;;7290375;19;20185;-92
2023/05/13 10:38:10;;;;;;;16.35;11.18;;;31.10;82.70;;;;;;7289274;19;20246;-92
2023/05/13 10:41:00;;;;;;;16.67;10.63;;;31.00;79.00;;;;;;7290578;19;20193;-92
2023/05/13 10:43:29;;;;;;;15.40;10.02;;;31.10;83.50;;;;;;7186386;19;2004671;-92
2023/05/13 10:45:59;;;;;;;14.45;10.77;;;31.30;83.20;;;;;;7287999;19;20181;-91
2023/05/13 10:48:25;;;;;;;15.52;10.48;;;30.60;79.60;;;;;;7288743;19;20181;-93
2023/05/13 10:50:53;;;;;;;16.20;10.63;;;31.00;80.30;;;;;;7288755;19;20181;-92
2023/05/13 10:53:31;;;;;;;14.10;10.15;;;30.90;81.20;;;;;;7300036;19;20199;-92
2023/05/13 10:55:59;;;;;;;16.90;10.70;;;31.70;85.20;;;;;;7291484;19;20226;-91
2023/05/13 10:58:38;;;;;;;15.13;9.77;;;31.70;77.40;;;;;;7287951;19;20264;-92
2023/05/13 11:01:29;;;;;;;16.63;10.30;;;31.40;78.80;;;;;;7286331;19;20196;-92
2023/05/13 11:04:00;;;;;;;14.00;10.23;;;32.00;77.90;;;;;;7185874;19;2004621;-92
2023/05/13 11:06:37;;;;;;;13.75;10.13;;;31.90;77.60;;;;;;7288463;19;20189;-92
2023/05/13 11:09:13;;;;;;;15.45;10.57;;;31.70;78.70;;;;;;7292047;19;20224;-92
2023/05/13 11:11:40;;;;;;;16.85;11.10;;;31.40;79.90;;;;;;7296535;19;20233;-92
2023/05/13 11:14:20;;;;;;;14.63;11.13;;;31.10;75.10;;;;;;7300157;19;20184;-92
2023/05/13 11:16:52;;;;;;;16.33;10.32;;;30.90;78.00;;;;;;7300237;19;20228;-92
2023/05/13 11:19:24;;;;;;;25.15;12.23;;;31.50;81.20;;;;;;7297739;19;20184;-91
2023/05/13 11:21:55;;;;;;;17.80;10.85;;;31.80;80.00;;;;;;7301630;19;20194;-89
2023/05/13 11:24:22;;;;;;;15.77;10.48;;;31.10;77.90;;;;;;7302343;19;20192;-91
2023/05/13 11:27:13;;;;;;;17.50;11.57;;;30.90;78.80;;;;;;7322446;19;20176;-90
2023/05/13 11:29:55;;;;;;;15.02;10.40;;;31.40;78.80;;;;;;7227231;19;2004286;-91
2023/05/13 11:32:51;;;;;;;21.40;12.18;;;31.00;83.70;;;;;;7278514;19;20196;-92
2023/05/13 11:35:31;;;;;;;16.80;11.45;;;31.90;82.80;;;;;;7305581;19;20216;-91
2023/05/13 11:38:02;;;;;;;15.55;11.35;;;32.20;81.80;;;;;;7199347;19;2004619;-93
2023/05/13 11:40:37;;;;;;;17.92;10.68;;;31.70;77.70;;;;;;7293959;19;20302;-91
2023/05/13 11:43:04;;;;;;;16.60;11.32;;;31.50;79.60;;;;;;7296600;19;20192;-91
2023/05/13 11:45:32;;;;;;;16.85;10.45;;;31.20;78.10;;;;;;7293218;19;20189;-93
2023/05/13 11:48:17;;;;;;;15.45;11.10;;;29.70;82.30;;;;;;7294276;19;20259;-93
2023/05/13 11:50:46;;;;;;;17.75;9.63;;;29.70;82.70;;;;;;7294297;19;20203;-92
2023/05/13 11:53:27;;;;;;;15.63;9.50;;;30.20;82.80;;;;;;7295209;19;20233;-93
2023/05/13 11:55:54;;;;;;;15.38;9.85;;;30.80;77.10;;;;;;7198952;19;2004468;-92
2023/05/13 11:58:20;;;;;;;15.60;9.73;;;31.40;76.40;;;;;;7300461;19;20184;-92
2023/05/13 12:01:07;;;;;;;15.13;9.50;;;31.50;76.30;;;;;;7323076;19;20204;-91
2023/05/13 12:03:34;;;;;;;12.23;9.60;;;31.00;75.60;;;;;;7196344;19;2004398;-91
2023/05/13 12:06:12;;;;;;;23.75;9.55;;;29.70;78.00;;;;;;7296222;19;20189;-91
2023/05/13 12:08:47;;;;;;;23.55;11.55;;;29.20;84.10;;;;;;7295007;19;20189;-91
2023/05/13 12:11:13;;;;;;;19.45;11.10;;;28.70;84.20;;;;;;7295528;19;20200;-92
2023/05/13 12:13:42;;;;;;;21.30;11.07;;;28.20;88.00;;;;;;7294625;19;20193;-91
2023/05/13 12:16:09;;;;;;;21.05;11.70;;;27.90;91.00;;;;;;7295634;19;20198;-91
2023/05/13 12:18:36;;;;;;;17.42;12.20;;;27.70;93.60;;;;;;7293264;19;20203;-91
2023/05/13 12:21:13;;;;;;;18.38;10.95;;;27.80;93.20;;;;;;7293044;19;20193;-91
2023/05/13 12:23:42;;;;;;;20.77;12.73;;;27.70;90.70;;;;;;7295396;19;20700;-91
2023/05/13 12:26:08;;;;;;;19.38;11.45;;;27.10;91.50;;;;;;7295037;19;20253;-91
2023/05/13 12:28:33;;;;;;;19.02;11.73;;;26.80;92.50;;;;;;7295152;19;20193;-92
2023/05/13 12:31:07;;;;;;;16.38;10.98;;;26.30;94.00;;;;;;7294755;19;20213;-92
2023/05/13 12:33:41;;;;;;;19.23;12.05;;;26.30;94.80;;;;;;7295279;19;20193;-92
2023/05/13 12:36:32;;;;;;;18.77;12.00;;;26.10;94.60;;;;;;7300440;19;20195;-91
2023/05/13 12:39:10;;;;;;;19.95;12.27;;;26.00;96.10;;;;;;7198709;19;2004450;-92